sensor_id;sensor_type;location;lat;lon;timestamp;pressure;altitude;pressure_sealevel;temperature;humidity
6032;BME280;3044;43.232;27.972;2023-03-14T00:00:52;45193.78;;;-143.84;68.25
6032;BME280;3044;43.232;27.972;2023-03-14T00:03:19;45201.41;;;-143.84;68.52
6032;BME280;3044;43.232;27.972;2023-03-14T00:05:46;45170.94;;;-143.84;68.70
6032;BME280;3044;43.232;27.972;2023-03-14T00:08:14;45199.50;;;-143.84;68.65
6032;BME280;3044;43.232;27.972;2023-03-14T00:10:41;45189.97;;;-143.84;68.65
6032;BME280;3044;43.232;27.972;2023-03-14T00:13:08;45182.38;;;-143.84;68.75
6032;BME280;3044;43.232;27.972;2023-03-14T00:15:35;45161.41;;;-143.84;69.02
6032;BME280;3044;43.232;27.972;2023-03-14T00:18:04;45191.88;;;-143.84;68.89
6032;BME280;3044;43.232;27.972;2023-03-14T00:20:31;45176.66;;;-143.84;69.19
6032;BME280;3044;43.232;27.972;2023-03-14T00:22:58;45174.75;;;-143.84;69.08
6032;BME280;3044;43.232;27.972;2023-03-14T00:25:25;45180.47;;;-143.84;69.17
6032;BME280;3044;43.232;27.972;2023-03-14T00:27:52;45203.31;;;-143.84;69.35
6032;BME280;3044;43.232;27.972;2023-03-14T00:30:20;45189.97;;;-143.84;69.03
6032;BME280;3044;43.232;27.972;2023-03-14T00:32:47;45180.47;;;-143.84;69.21
6032;BME280;3044;43.232;27.972;2023-03-14T00:35:16;45197.59;;;-143.84;69.27
6032;BME280;3044;43.232;27.972;2023-03-14T00:37:43;45172.84;;;-143.84;69.16
6032;BME280;3044;43.232;27.972;2023-03-14T00:40:10;45197.59;;;-143.84;69.26
6032;BME280;3044;43.232;27.972;2023-03-14T00:42:38;45174.75;;;-143.84;69.55
6032;BME280;3044;43.232;27.972;2023-03-14T00:45:06;45169.03;;;-143.84;69.60
6032;BME280;3044;43.232;27.972;2023-03-14T00:47:34;45186.16;;;-143.84;69.60
6032;BME280;3044;43.232;27.972;2023-03-14T00:50:01;45193.78;;;-143.84;69.58
6032;BME280;3044;43.232;27.972;2023-03-14T00:52:30;45210.94;;;-143.84;69.47
6032;BME280;3044;43.232;27.972;2023-03-14T00:54:57;45163.31;;;-143.84;69.69
6032;BME280;3044;43.232;27.972;2023-03-14T00:57:24;45186.16;;;-143.84;69.41
6032;BME280;3044;43.232;27.972;2023-03-14T00:59:51;45167.13;;;-143.84;69.60
6032;BME280;3044;43.232;27.972;2023-03-14T01:02:19;45170.94;;;-143.84;69.57
6032;BME280;3044;43.232;27.972;2023-03-14T01:04:47;45212.84;;;-143.84;69.21
6032;BME280;3044;43.232;27.972;2023-03-14T01:07:15;45170.94;;;-143.84;69.24
6032;BME280;3044;43.232;27.972;2023-03-14T01:09:43;45180.47;;;-143.84;69.12
6032;BME280;3044;43.232;27.972;2023-03-14T01:12:10;45161.41;;;-143.84;69.06
6032;BME280;3044;43.232;27.972;2023-03-14T01:14:38;45201.41;;;-143.84;69.12
6032;BME280;3044;43.232;27.972;2023-03-14T01:17:05;45193.78;;;-143.84;69.15
6032;BME280;3044;43.232;27.972;2023-03-14T01:19:32;45195.69;;;-143.84;69.32
6032;BME280;3044;43.232;27.972;2023-03-14T01:21:59;45148.09;;;-143.84;69.17
6032;BME280;3044;43.232;27.972;2023-03-14T01:24:28;45184.25;;;-143.84;69.36
6032;BME280;3044;43.232;27.972;2023-03-14T01:26:56;45184.25;;;-143.84;69.44
6032;BME280;3044;43.232;27.972;2023-03-14T01:29:23;45188.06;;;-143.84;69.43
6032;BME280;3044;43.232;27.972;2023-03-14T01:31:50;45189.97;;;-143.84;69.44
6032;BME280;3044;43.232;27.972;2023-03-14T01:34:18;45188.06;;;-143.84;69.49
6032;BME280;3044;43.232;27.972;2023-03-14T01:36:45;45189.97;;;-143.84;69.66
6032;BME280;3044;43.232;27.972;2023-03-14T01:39:12;45184.25;;;-143.84;69.84
6032;BME280;3044;43.232;27.972;2023-03-14T01:41:40;45209.03;;;-143.84;69.66
6032;BME280;3044;43.232;27.972;2023-03-14T01:44:11;45209.03;;;-143.84;69.88
6032;BME280;3044;43.232;27.972;2023-03-14T01:46:39;45188.06;;;-143.84;69.63
6032;BME280;3044;43.232;27.972;2023-03-14T01:49:15;45188.06;;;-143.84;69.85
6032;BME280;3044;43.232;27.972;2023-03-14T01:51:48;45165.22;;;-143.84;70.16
6032;BME280;3044;43.232;27.972;2023-03-14T01:54:19;45207.13;;;-143.84;70.37
6032;BME280;3044;43.232;27.972;2023-03-14T01:56:51;45178.56;;;-143.84;70.47
6032;BME280;3044;43.232;27.972;2023-03-14T01:59:21;45180.47;;;-143.84;70.33
6032;BME280;3044;43.232;27.972;2023-03-14T02:01:50;45172.84;;;-143.84;70.58
6032;BME280;3044;43.232;27.972;2023-03-14T02:04:19;45176.66;;;-143.84;70.63
6032;BME280;3044;43.232;27.972;2023-03-14T02:06:52;45189.97;;;-143.84;70.97
6032;BME280;3044;43.232;27.972;2023-03-14T02:09:22;45157.59;;;-143.84;71.11
6032;BME280;3044;43.232;27.972;2023-03-14T02:11:49;45197.59;;;-143.84;71.41
6032;BME280;3044;43.232;27.972;2023-03-14T02:14:28;45197.59;;;-143.84;71.40
6032;BME280;3044;43.232;27.972;2023-03-14T02:16:56;45197.59;;;-143.84;71.52
6032;BME280;3044;43.232;27.972;2023-03-14T02:19:31;45167.13;;;-143.84;71.51
6032;BME280;3044;43.232;27.972;2023-03-14T02:22:06;45216.63;;;-143.84;71.58
6032;BME280;3044;43.232;27.972;2023-03-14T02:24:39;45191.88;;;-143.84;71.78
6032;BME280;3044;43.232;27.972;2023-03-14T02:27:14;45201.41;;;-143.84;71.79
6032;BME280;3044;43.232;27.972;2023-03-14T02:29:48;45212.84;;;-143.84;71.85
6032;BME280;3044;43.232;27.972;2023-03-14T02:32:17;45178.56;;;-143.84;72.08
6032;BME280;3044;43.232;27.972;2023-03-14T02:34:48;45182.38;;;-143.84;72.05
6032;BME280;3044;43.232;27.972;2023-03-14T02:37:17;45186.16;;;-143.84;72.20
6032;BME280;3044;43.232;27.972;2023-03-14T02:39:46;45201.41;;;-143.84;72.39
6032;BME280;3044;43.232;27.972;2023-03-14T02:42:16;45193.78;;;-143.84;72.56
6032;BME280;3044;43.232;27.972;2023-03-14T02:44:52;45195.69;;;-143.84;72.67
6032;BME280;3044;43.232;27.972;2023-03-14T02:47:27;45170.94;;;-143.84;72.44
6032;BME280;3044;43.232;27.972;2023-03-14T02:50:01;45184.25;;;-143.84;72.56
6032;BME280;3044;43.232;27.972;2023-03-14T02:52:29;45186.16;;;-143.84;72.95
6032;BME280;3044;43.232;27.972;2023-03-14T02:54:56;45176.66;;;-143.84;72.77
6032;BME280;3044;43.232;27.972;2023-03-14T02:57:25;45180.47;;;-143.84;72.76
6032;BME280;3044;43.232;27.972;2023-03-14T02:59:52;45184.25;;;-143.84;72.51
6032;BME280;3044;43.232;27.972;2023-03-14T03:02:19;45205.22;;;-143.84;72.28
6032;BME280;3044;43.232;27.972;2023-03-14T03:04:46;45203.31;;;-143.84;72.36
6032;BME280;3044;43.232;27.972;2023-03-14T03:07:13;45199.50;;;-143.84;72.26
6032;BME280;3044;43.232;27.972;2023-03-14T03:09:40;45180.47;;;-143.84;72.34
6032;BME280;3044;43.232;27.972;2023-03-14T03:12:07;45188.06;;;-143.84;72.44
6032;BME280;3044;43.232;27.972;2023-03-14T03:14:36;45193.78;;;-143.84;72.75
6032;BME280;3044;43.232;27.972;2023-03-14T03:17:03;45178.56;;;-143.84;72.76
6032;BME280;3044;43.232;27.972;2023-03-14T03:19:31;45178.56;;;-143.84;72.77
6032;BME280;3044;43.232;27.972;2023-03-14T03:21:58;45184.25;;;-143.84;72.85
6032;BME280;3044;43.232;27.972;2023-03-14T03:24:26;45167.13;;;-143.84;72.58
6032;BME280;3044;43.232;27.972;2023-03-14T03:26:53;45161.41;;;-143.84;72.79
6032;BME280;3044;43.232;27.972;2023-03-14T03:29:20;45170.94;;;-143.84;73.39
6032;BME280;3044;43.232;27.972;2023-03-14T03:31:49;45193.78;;;-143.84;73.91
6032;BME280;3044;43.232;27.972;2023-03-14T03:34:16;45184.25;;;-143.84;73.69
6032;BME280;3044;43.232;27.972;2023-03-14T03:36:43;45188.06;;;-143.84;73.93
6032;BME280;3044;43.232;27.972;2023-03-14T03:39:11;45165.22;;;-143.84;73.88
6032;BME280;3044;43.232;27.972;2023-03-14T03:41:38;45184.25;;;-143.84;73.59
6032;BME280;3044;43.232;27.972;2023-03-14T03:44:05;45184.25;;;-143.84;72.99
6032;BME280;3044;43.232;27.972;2023-03-14T03:46:32;45169.03;;;-143.84;72.85
6032;BME280;3044;43.232;27.972;2023-03-14T03:49:01;45201.41;;;-143.84;73.78
6032;BME280;3044;43.232;27.972;2023-03-14T03:51:28;45165.22;;;-143.84;74.15
6032;BME280;3044;43.232;27.972;2023-03-14T03:53:56;45205.22;;;-143.84;73.79
6032;BME280;3044;43.232;27.972;2023-03-14T03:56:23;45189.97;;;-143.84;73.63
6032;BME280;3044;43.232;27.972;2023-03-14T03:58:50;45167.13;;;-143.84;73.56
6032;BME280;3044;43.232;27.972;2023-03-14T04:01:17;45167.13;;;-143.84;73.21
6032;BME280;3044;43.232;27.972;2023-03-14T04:03:45;45189.97;;;-143.84;72.93
6032;BME280;3044;43.232;27.972;2023-03-14T04:06:13;45209.03;;;-143.84;72.50
6032;BME280;3044;43.232;27.972;2023-03-14T04:08:40;45193.78;;;-143.84;72.19
6032;BME280;3044;43.232;27.972;2023-03-14T04:11:09;45167.13;;;-143.84;72.20
6032;BME280;3044;43.232;27.972;2023-03-14T04:13:36;45212.84;;;-143.84;72.80
6032;BME280;3044;43.232;27.972;2023-03-14T04:16:03;45205.22;;;-143.84;73.60
6032;BME280;3044;43.232;27.972;2023-03-14T04:18:30;45186.16;;;-143.84;74.16
6032;BME280;3044;43.232;27.972;2023-03-14T04:20:57;45188.06;;;-143.84;74.17
6032;BME280;3044;43.232;27.972;2023-03-14T04:23:26;45210.94;;;-143.84;74.59
6032;BME280;3044;43.232;27.972;2023-03-14T04:25:53;45174.75;;;-143.84;74.28
6032;BME280;3044;43.232;27.972;2023-03-14T04:28:20;45174.75;;;-143.84;74.02
6032;BME280;3044;43.232;27.972;2023-03-14T04:30:47;45184.25;;;-143.84;73.98
6032;BME280;3044;43.232;27.972;2023-03-14T04:33:14;45199.50;;;-143.84;74.74
6032;BME280;3044;43.232;27.972;2023-03-14T04:35:42;45189.97;;;-143.84;74.72
6032;BME280;3044;43.232;27.972;2023-03-14T04:38:10;45191.88;;;-143.84;74.87
6032;BME280;3044;43.232;27.972;2023-03-14T04:40:40;45174.75;;;-143.84;74.50
6032;BME280;3044;43.232;27.972;2023-03-14T04:43:08;45214.72;;;-143.84;74.81
6032;BME280;3044;43.232;27.972;2023-03-14T04:45:36;45170.94;;;-143.84;75.36
6032;BME280;3044;43.232;27.972;2023-03-14T04:48:03;45151.91;;;-143.84;75.23
6032;BME280;3044;43.232;27.972;2023-03-14T04:50:30;45140.47;;;-143.84;75.27
6032;BME280;3044;43.232;27.972;2023-03-14T04:52:57;45195.69;;;-143.84;75.00
6032;BME280;3044;43.232;27.972;2023-03-14T04:55:24;45172.84;;;-143.84;74.84
6032;BME280;3044;43.232;27.972;2023-03-14T04:57:53;45189.97;;;-143.84;74.87
6032;BME280;3044;43.232;27.972;2023-03-14T05:00:20;45159.50;;;-143.84;75.03
6032;BME280;3044;43.232;27.972;2023-03-14T05:02:47;45189.97;;;-143.84;75.39
6032;BME280;3044;43.232;27.972;2023-03-14T05:05:15;45169.03;;;-143.84;75.88
6032;BME280;3044;43.232;27.972;2023-03-14T05:07:42;45151.91;;;-143.84;75.95
6032;BME280;3044;43.232;27.972;2023-03-14T05:10:10;45189.97;;;-143.84;76.33
6032;BME280;3044;43.232;27.972;2023-03-14T05:12:37;45189.97;;;-143.84;76.26
6032;BME280;3044;43.232;27.972;2023-03-14T05:15:07;45167.13;;;-143.84;77.74
6032;BME280;3044;43.232;27.972;2023-03-14T05:17:35;45174.75;;;-143.84;76.79
6032;BME280;3044;43.232;27.972;2023-03-14T05:20:03;45169.03;;;-143.84;75.78
6032;BME280;3044;43.232;27.972;2023-03-14T05:22:33;45170.94;;;-143.84;74.90
6032;BME280;3044;43.232;27.972;2023-03-14T05:25:00;45184.25;;;-143.84;73.52
6032;BME280;3044;43.232;27.972;2023-03-14T05:27:28;45159.50;;;-143.84;73.01
6032;BME280;3044;43.232;27.972;2023-03-14T05:29:55;45151.91;;;-143.84;72.78
6032;BME280;3044;43.232;27.972;2023-03-14T05:32:23;45144.28;;;-143.84;71.96
6032;BME280;3044;43.232;27.972;2023-03-14T05:34:50;45176.66;;;-143.84;70.48
6032;BME280;3044;43.232;27.972;2023-03-14T05:37:17;45184.25;;;-143.84;69.14
6032;BME280;3044;43.232;27.972;2023-03-14T05:39:45;45150.00;;;-143.84;68.50
6032;BME280;3044;43.232;27.972;2023-03-14T05:42:12;45176.66;;;-143.84;68.49
6032;BME280;3044;43.232;27.972;2023-03-14T05:44:39;45161.41;;;-143.84;66.25
6032;BME280;3044;43.232;27.972;2023-03-14T05:47:06;45146.19;;;-143.84;66.17
6032;BME280;3044;43.232;27.972;2023-03-14T05:49:34;45142.38;;;-143.84;63.52
6032;BME280;3044;43.232;27.972;2023-03-14T05:52:01;45167.13;;;-143.84;61.63
6032;BME280;3044;43.232;27.972;2023-03-14T05:54:29;45150.00;;;-143.84;60.69
6032;BME280;3044;43.232;27.972;2023-03-14T05:56:56;45138.56;;;-143.84;59.76
6032;BME280;3044;43.232;27.972;2023-03-14T05:59:23;45151.91;;;-143.84;59.33
6032;BME280;3044;43.232;27.972;2023-03-14T06:01:50;45155.69;;;-143.84;58.56
6032;BME280;3044;43.232;27.972;2023-03-14T06:04:17;45150.00;;;-143.84;56.42
6032;BME280;3044;43.232;27.972;2023-03-14T06:06:46;45159.50;;;-143.84;56.09
6032;BME280;3044;43.232;27.972;2023-03-14T06:09:13;45129.03;;;-143.84;54.89
6032;BME280;3044;43.232;27.972;2023-03-14T06:11:40;45132.84;;;-143.84;54.54
6032;BME280;3044;43.232;27.972;2023-03-14T06:14:07;45159.50;;;-143.84;53.24
6032;BME280;3044;43.232;27.972;2023-03-14T06:16:34;45132.84;;;-143.84;53.06
6032;BME280;3044;43.232;27.972;2023-03-14T06:19:01;45142.38;;;-143.84;50.70
6032;BME280;3044;43.232;27.972;2023-03-14T06:21:28;45140.47;;;-143.84;50.56
6032;BME280;3044;43.232;27.972;2023-03-14T06:23:57;45148.09;;;-143.84;49.82
6032;BME280;3044;43.232;27.972;2023-03-14T06:26:24;45129.03;;;-143.84;50.55
6032;BME280;3044;43.232;27.972;2023-03-14T06:28:51;45142.38;;;-143.84;51.25
6032;BME280;3044;43.232;27.972;2023-03-14T06:31:19;45129.03;;;-143.84;49.68
6032;BME280;3044;43.232;27.972;2023-03-14T06:33:46;45140.47;;;-143.84;49.89
6032;BME280;3044;43.232;27.972;2023-03-14T06:36:13;45136.66;;;-143.84;50.01
6032;BME280;3044;43.232;27.972;2023-03-14T06:38:40;45125.22;;;-143.84;48.79
6032;BME280;3044;43.232;27.972;2023-03-14T06:41:09;45113.81;;;-143.84;49.10
6032;BME280;3044;43.232;27.972;2023-03-14T06:43:36;45125.22;;;-143.84;49.28
6032;BME280;3044;43.232;27.972;2023-03-14T06:46:03;45129.03;;;-143.84;49.16
6032;BME280;3044;43.232;27.972;2023-03-14T06:48:30;45129.03;;;-143.84;49.37
6032;BME280;3044;43.232;27.972;2023-03-14T06:50:57;45123.34;;;-143.84;48.63
6032;BME280;3044;43.232;27.972;2023-03-14T06:53:25;45117.63;;;-143.84;48.64
6032;BME280;3044;43.232;27.972;2023-03-14T06:55:52;45106.19;;;-143.84;48.99
6032;BME280;3044;43.232;27.972;2023-03-14T06:58:20;45153.81;;;-143.84;49.02
6032;BME280;3044;43.232;27.972;2023-03-14T07:00:47;45184.25;;;-143.84;49.45
6032;BME280;3044;43.232;27.972;2023-03-14T07:03:15;45106.19;;;-143.84;48.58
6032;BME280;3044;43.232;27.972;2023-03-14T07:05:42;45127.13;;;-143.84;49.27
6032;BME280;3044;43.232;27.972;2023-03-14T07:08:09;45110.00;;;-143.84;48.12
6032;BME280;3044;43.232;27.972;2023-03-14T07:10:36;45153.81;;;-143.84;48.29
6032;BME280;3044;43.232;27.972;2023-03-14T07:13:04;45132.84;;;-143.84;48.54
6032;BME280;3044;43.232;27.972;2023-03-14T07:15:32;45138.56;;;-143.84;48.14
6032;BME280;3044;43.232;27.972;2023-03-14T07:17:59;45121.44;;;-143.84;48.89
6032;BME280;3044;43.232;27.972;2023-03-14T07:20:27;45151.91;;;-143.84;48.17
6032;BME280;3044;43.232;27.972;2023-03-14T07:22:54;45144.28;;;-143.84;47.92
6032;BME280;3044;43.232;27.972;2023-03-14T07:25:21;45138.56;;;-143.84;48.39
6032;BME280;3044;43.232;27.972;2023-03-14T07:27:48;45176.66;;;-143.84;47.86
6032;BME280;3044;43.232;27.972;2023-03-14T07:30:16;45115.72;;;-143.84;47.86
6032;BME280;3044;43.232;27.972;2023-03-14T07:32:45;45134.75;;;-143.84;47.61
6032;BME280;3044;43.232;27.972;2023-03-14T07:35:12;45121.44;;;-143.84;47.92
6032;BME280;3044;43.232;27.972;2023-03-14T07:37:39;45108.09;;;-143.84;50.19
6032;BME280;3044;43.232;27.972;2023-03-14T07:40:07;45130.94;;;-143.84;49.23
6032;BME280;3044;43.232;27.972;2023-03-14T07:42:36;45153.81;;;-143.84;49.25
6032;BME280;3044;43.232;27.972;2023-03-14T07:45:03;45172.84;;;-143.84;49.14
6032;BME280;3044;43.232;27.972;2023-03-14T07:47:31;45125.22;;;-143.84;49.18
6032;BME280;3044;43.232;27.972;2023-03-14T07:49:59;45132.84;;;-143.84;49.06
6032;BME280;3044;43.232;27.972;2023-03-14T07:52:26;45140.47;;;-143.84;49.19
6032;BME280;3044;43.232;27.972;2023-03-14T07:54:53;45119.53;;;-143.84;47.69
6032;BME280;3044;43.232;27.972;2023-03-14T07:57:21;45130.94;;;-143.84;48.14
6032;BME280;3044;43.232;27.972;2023-03-14T07:59:48;45121.44;;;-143.84;47.48
6032;BME280;3044;43.232;27.972;2023-03-14T08:02:15;45138.56;;;-143.84;47.61
6032;BME280;3044;43.232;27.972;2023-03-14T08:04:43;45136.66;;;-143.84;47.32
6032;BME280;3044;43.232;27.972;2023-03-14T08:07:12;45115.72;;;-143.84;47.56
6032;BME280;3044;43.232;27.972;2023-03-14T08:09:39;45148.09;;;-143.84;47.40
6032;BME280;3044;43.232;27.972;2023-03-14T08:12:06;45130.94;;;-143.84;47.89
6032;BME280;3044;43.232;27.972;2023-03-14T08:14:34;45130.94;;;-143.84;48.06
6032;BME280;3044;43.232;27.972;2023-03-14T08:17:01;45087.16;;;-143.84;48.55
6032;BME280;3044;43.232;27.972;2023-03-14T08:19:28;45138.56;;;-143.84;47.98
6032;BME280;3044;43.232;27.972;2023-03-14T08:21:55;45115.72;;;-143.84;47.03
6032;BME280;3044;43.232;27.972;2023-03-14T08:24:23;45132.84;;;-143.84;47.74
6032;BME280;3044;43.232;27.972;2023-03-14T08:26:50;45117.63;;;-143.84;48.68
6032;BME280;3044;43.232;27.972;2023-03-14T08:29:18;45161.41;;;-143.84;47.05
6032;BME280;3044;43.232;27.972;2023-03-14T08:31:45;45085.25;;;-143.84;46.58
6032;BME280;3044;43.232;27.972;2023-03-14T08:34:14;45130.94;;;-143.84;47.32
6032;BME280;3044;43.232;27.972;2023-03-14T08:36:41;45090.97;;;-143.84;47.09
6032;BME280;3044;43.232;27.972;2023-03-14T08:39:09;45115.72;;;-143.84;46.09
6032;BME280;3044;43.232;27.972;2023-03-14T08:41:37;45115.72;;;-143.84;45.93
6032;BME280;3044;43.232;27.972;2023-03-14T08:44:06;45123.34;;;-143.84;45.94
6032;BME280;3044;43.232;27.972;2023-03-14T08:46:34;45104.28;;;-143.84;47.79
6032;BME280;3044;43.232;27.972;2023-03-14T08:49:01;45092.88;;;-143.84;46.92
6032;BME280;3044;43.232;27.972;2023-03-14T08:51:28;45129.03;;;-143.84;46.79
6032;BME280;3044;43.232;27.972;2023-03-14T08:53:56;45111.91;;;-143.84;47.30
6032;BME280;3044;43.232;27.972;2023-03-14T08:56:23;45136.66;;;-143.84;46.33
6032;BME280;3044;43.232;27.972;2023-03-14T08:58:51;45123.34;;;-143.84;46.31
6032;BME280;3044;43.232;27.972;2023-03-14T09:01:18;45111.91;;;-143.84;46.83
6032;BME280;3044;43.232;27.972;2023-03-14T09:03:47;45106.19;;;-143.84;46.92
6032;BME280;3044;43.232;27.972;2023-03-14T09:06:15;45123.34;;;-143.84;46.60
6032;BME280;3044;43.232;27.972;2023-03-14T09:08:43;45125.22;;;-143.84;46.61
6032;BME280;3044;43.232;27.972;2023-03-14T09:11:11;45119.53;;;-143.84;45.13
6032;BME280;3044;43.232;27.972;2023-03-14T09:13:38;45134.75;;;-143.84;46.29
6032;BME280;3044;43.232;27.972;2023-03-14T09:16:08;45117.63;;;-143.84;45.86
6032;BME280;3044;43.232;27.972;2023-03-14T09:18:36;45125.22;;;-143.84;46.60
6032;BME280;3044;43.232;27.972;2023-03-14T09:21:03;45104.28;;;-143.84;47.26
6032;BME280;3044;43.232;27.972;2023-03-14T09:23:30;45119.53;;;-143.84;47.01
6032;BME280;3044;43.232;27.972;2023-03-14T09:25:59;45146.19;;;-143.84;46.54
6032;BME280;3044;43.232;27.972;2023-03-14T09:28:26;45115.72;;;-143.84;48.20
6032;BME280;3044;43.232;27.972;2023-03-14T09:30:53;45136.66;;;-143.84;46.09
6032;BME280;3044;43.232;27.972;2023-03-14T09:33:22;45087.16;;;-143.84;47.13
6032;BME280;3044;43.232;27.972;2023-03-14T09:35:49;45089.06;;;-143.84;46.27
6032;BME280;3044;43.232;27.972;2023-03-14T09:38:18;45111.91;;;-143.84;47.20
6032;BME280;3044;43.232;27.972;2023-03-14T09:40:46;45104.28;;;-143.84;47.20
6032;BME280;3044;43.232;27.972;2023-03-14T09:43:15;45119.53;;;-143.84;44.93
6032;BME280;3044;43.232;27.972;2023-03-14T09:45:44;45096.66;;;-143.84;46.32
6032;BME280;3044;43.232;27.972;2023-03-14T09:48:16;45132.84;;;-143.84;44.90
6032;BME280;3044;43.232;27.972;2023-03-14T09:50:48;45115.72;;;-143.84;45.01
6032;BME280;3044;43.232;27.972;2023-03-14T09:53:19;45092.88;;;-143.84;45.78
6032;BME280;3044;43.232;27.972;2023-03-14T09:55:49;45111.91;;;-143.84;45.97
6032;BME280;3044;43.232;27.972;2023-03-14T09:58:20;45123.34;;;-143.84;46.07
6032;BME280;3044;43.232;27.972;2023-03-14T10:00:49;45123.34;;;-143.84;47.53
6032;BME280;3044;43.232;27.972;2023-03-14T10:03:25;45100.47;;;-143.84;47.12
6032;BME280;3044;43.232;27.972;2023-03-14T10:05:55;45110.00;;;-143.84;46.61
6032;BME280;3044;43.232;27.972;2023-03-14T10:08:22;45130.94;;;-143.84;46.75
6032;BME280;3044;43.232;27.972;2023-03-14T10:10:50;45094.78;;;-143.84;47.18
6032;BME280;3044;43.232;27.972;2023-03-14T10:13:20;45129.03;;;-143.84;47.36
6032;BME280;3044;43.232;27.972;2023-03-14T10:15:53;45125.22;;;-143.84;47.17
6032;BME280;3044;43.232;27.972;2023-03-14T10:18:22;45092.88;;;-143.84;47.29
6032;BME280;3044;43.232;27.972;2023-03-14T10:21:00;45125.22;;;-143.84;46.61
6032;BME280;3044;43.232;27.972;2023-03-14T10:23:32;45140.47;;;-143.84;48.20
6032;BME280;3044;43.232;27.972;2023-03-14T10:26:05;45115.72;;;-143.84;45.77
6032;BME280;3044;43.232;27.972;2023-03-14T10:28:34;45115.72;;;-143.84;47.29
6032;BME280;3044;43.232;27.972;2023-03-14T10:31:04;45119.53;;;-143.84;50.38
6032;BME280;3044;43.232;27.972;2023-03-14T10:33:33;45134.75;;;-143.84;49.31
6032;BME280;3044;43.232;27.972;2023-03-14T10:36:02;45100.47;;;-143.84;48.19
6032;BME280;3044;43.232;27.972;2023-03-14T10:38:32;45136.66;;;-143.84;48.68
6032;BME280;3044;43.232;27.972;2023-03-14T10:41:00;45106.19;;;-143.84;46.50
6032;BME280;3044;43.232;27.972;2023-03-14T10:43:31;45106.19;;;-143.84;46.22
6032;BME280;3044;43.232;27.972;2023-03-14T10:46:00;45110.00;;;-143.84;47.54
6032;BME280;3044;43.232;27.972;2023-03-14T10:48:33;45100.47;;;-143.84;48.51
6032;BME280;3044;43.232;27.972;2023-03-14T10:51:06;45110.00;;;-143.84;47.13
6032;BME280;3044;43.232;27.972;2023-03-14T10:53:40;45079.53;;;-143.84;46.08
6032;BME280;3044;43.232;27.972;2023-03-14T10:56:11;45125.22;;;-143.84;43.07
6032;BME280;3044;43.232;27.972;2023-03-14T10:58:41;45096.66;;;-143.84;46.11
6032;BME280;3044;43.232;27.972;2023-03-14T11:01:27;45117.63;;;-143.84;43.78
6032;BME280;3044;43.232;27.972;2023-03-14T11:04:00;45136.66;;;-143.84;42.53
6032;BME280;3044;43.232;27.972;2023-03-14T11:06:36;45083.34;;;-143.84;40.34
6032;BME280;3044;43.232;27.972;2023-03-14T11:09:13;45108.09;;;-143.84;42.12
6032;BME280;3044;43.232;27.972;2023-03-14T11:11:47;45110.00;;;-143.84;43.15
6032;BME280;3044;43.232;27.972;2023-03-14T11:14:26;45089.06;;;-143.84;42.98
6032;BME280;3044;43.232;27.972;2023-03-14T11:17:00;45096.66;;;-143.84;44.92
6032;BME280;3044;43.232;27.972;2023-03-14T11:19:53;45119.53;;;-143.84;43.68
6032;BME280;3044;43.232;27.972;2023-03-14T11:22:28;45102.38;;;-143.84;44.24
6032;BME280;3044;43.232;27.972;2023-03-14T11:25:14;45117.63;;;-143.84;43.04
6032;BME280;3044;43.232;27.972;2023-03-14T11:27:50;45117.63;;;-143.84;43.08
6032;BME280;3044;43.232;27.972;2023-03-14T11:30:26;45106.19;;;-143.84;41.74
6032;BME280;3044;43.232;27.972;2023-03-14T11:33:05;45102.38;;;-143.84;41.22
6032;BME280;3044;43.232;27.972;2023-03-14T11:35:37;45094.78;;;-143.84;43.97
6032;BME280;3044;43.232;27.972;2023-03-14T11:38:19;45113.81;;;-143.84;41.91
6032;BME280;3044;43.232;27.972;2023-03-14T11:40:57;45115.72;;;-143.84;42.22
6032;BME280;3044;43.232;27.972;2023-03-14T11:43:28;45110.00;;;-143.84;42.72
6032;BME280;3044;43.232;27.972;2023-03-14T11:46:01;45132.84;;;-143.84;42.00
6032;BME280;3044;43.232;27.972;2023-03-14T11:48:36;45127.13;;;-143.84;41.63
6032;BME280;3044;43.232;27.972;2023-03-14T11:51:11;45125.22;;;-143.84;45.62
6032;BME280;3044;43.232;27.972;2023-03-14T11:53:50;45123.34;;;-143.84;45.01
6032;BME280;3044;43.232;27.972;2023-03-14T11:56:29;45094.78;;;-143.84;44.24
6032;BME280;3044;43.232;27.972;2023-03-14T11:59:01;45125.22;;;-143.84;42.71
6032;BME280;3044;43.232;27.972;2023-03-14T12:01:36;45136.66;;;-143.84;42.11
6032;BME280;3044;43.232;27.972;2023-03-14T12:04:13;45104.28;;;-143.84;46.74
6032;BME280;3044;43.232;27.972;2023-03-14T12:06:47;45134.75;;;-143.84;41.79
6032;BME280;3044;43.232;27.972;2023-03-14T12:09:16;45144.28;;;-143.84;43.30
6032;BME280;3044;43.232;27.972;2023-03-14T12:11:48;45108.09;;;-143.84;45.47
6032;BME280;3044;43.232;27.972;2023-03-14T12:14:21;45130.94;;;-143.84;45.73
6032;BME280;3044;43.232;27.972;2023-03-14T12:16:53;45136.66;;;-143.84;44.46
6032;BME280;3044;43.232;27.972;2023-03-14T12:19:33;45100.47;;;-143.84;43.67
6032;BME280;3044;43.232;27.972;2023-03-14T12:22:12;45106.19;;;-143.84;44.91
6032;BME280;3044;43.232;27.972;2023-03-14T12:24:45;45123.34;;;-143.84;44.70
6032;BME280;3044;43.232;27.972;2023-03-14T12:30:27;45136.66;;;-143.84;43.33
6032;BME280;3044;43.232;27.972;2023-03-14T12:39:05;45119.53;;;-143.84;46.16
6032;BME280;3044;43.232;27.972;2023-03-14T12:41:41;45134.75;;;-143.84;45.93
6032;BME280;3044;43.232;27.972;2023-03-14T12:44:46;45121.44;;;-143.84;45.56
6032;BME280;3044;43.232;27.972;2023-03-14T12:50:18;45140.47;;;-143.84;43.18
6032;BME280;3044;43.232;27.972;2023-03-14T12:53:09;45125.22;;;-143.84;42.83
6032;BME280;3044;43.232;27.972;2023-03-14T12:55:47;45123.34;;;-143.84;47.23
6032;BME280;3044;43.232;27.972;2023-03-14T12:58:22;45129.03;;;-143.84;50.92
6032;BME280;3044;43.232;27.972;2023-03-14T13:00:58;45144.28;;;-143.84;50.55
6032;BME280;3044;43.232;27.972;2023-03-14T13:03:37;45148.09;;;-143.84;44.70
6032;BME280;3044;43.232;27.972;2023-03-14T13:06:08;45129.03;;;-143.84;48.85
6032;BME280;3044;43.232;27.972;2023-03-14T13:08:38;45123.34;;;-143.84;52.18
6032;BME280;3044;43.232;27.972;2023-03-14T13:11:09;45130.94;;;-143.84;53.51
6032;BME280;3044;43.232;27.972;2023-03-14T13:13:42;45134.75;;;-143.84;56.42